sensor_id;sensor_type;location;lat;lon;timestamp;temperature;humidity
42841;DHT22;28491;46.898;7.660;2023-09-07T00:00:10;19.40;1.00
42841;DHT22;28491;46.898;7.660;2023-09-07T00:02:36;19.40;1.00
42841;DHT22;28491;46.898;7.660;2023-09-07T00:05:01;19.30;1.00
42841;DHT22;28491;46.898;7.660;2023-09-07T00:07:27;19.20;1.00
42841;DHT22;28491;46.898;7.660;2023-09-07T00:09:52;19.10;1.00
42841;DHT22;28491;46.898;7.660;2023-09-07T00:12:18;19.00;1.00
42841;DHT22;28491;46.898;7.660;2023-09-07T00:14:44;19.00;1.00
42841;DHT22;28491;46.898;7.660;2023-09-07T00:17:10;19.00;1.00
42841;DHT22;28491;46.898;7.660;2023-09-07T00:19:36;19.10;1.00
42841;DHT22;28491;46.898;7.660;2023-09-07T00:22:03;19.10;1.00
42841;DHT22;28491;46.898;7.660;2023-09-07T00:24:28;19.10;1.00
42841;DHT22;28491;46.898;7.660;2023-09-07T00:26:54;19.20;1.00
42841;DHT22;28491;46.898;7.660;2023-09-07T00:29:19;19.10;1.00
42841;DHT22;28491;46.898;7.660;2023-09-07T00:31:45;19.10;1.00
42841;DHT22;28491;46.898;7.660;2023-09-07T00:34:10;19.20;1.00
42841;DHT22;28491;46.898;7.660;2023-09-07T00:36:36;19.00;1.00
42841;DHT22;28491;46.898;7.660;2023-09-07T00:39:02;19.00;1.00
42841;DHT22;28491;46.898;7.660;2023-09-07T00:41:27;18.90;1.00
42841;DHT22;28491;46.898;7.660;2023-09-07T00:43:53;18.80;1.00
42841;DHT22;28491;46.898;7.660;2023-09-07T00:46:18;18.80;1.00
42841;DHT22;28491;46.898;7.660;2023-09-07T00:48:44;18.90;1.00
42841;DHT22;28491;46.898;7.660;2023-09-07T00:51:10;19.00;1.00
42841;DHT22;28491;46.898;7.660;2023-09-07T00:53:36;19.00;1.00
42841;DHT22;28491;46.898;7.660;2023-09-07T00:56:02;18.80;1.00
42841;DHT22;28491;46.898;7.660;2023-09-07T00:58:28;18.90;1.00
42841;DHT22;28491;46.898;7.660;2023-09-07T01:00:53;18.90;1.00
42841;DHT22;28491;46.898;7.660;2023-09-07T01:03:19;18.90;1.00
42841;DHT22;28491;46.898;7.660;2023-09-07T01:05:53;18.90;1.00
42841;DHT22;28491;46.898;7.660;2023-09-07T01:08:24;19.00;1.00
42841;DHT22;28491;46.898;7.660;2023-09-07T01:10:51;19.00;1.00
42841;DHT22;28491;46.898;7.660;2023-09-07T01:13:18;18.90;1.00
42841;DHT22;28491;46.898;7.660;2023-09-07T01:15:44;18.90;1.00
42841;DHT22;28491;46.898;7.660;2023-09-07T01:18:10;18.90;1.00
42841;DHT22;28491;46.898;7.660;2023-09-07T01:20:36;18.80;1.00
42841;DHT22;28491;46.898;7.660;2023-09-07T01:23:04;18.70;1.00
42841;DHT22;28491;46.898;7.660;2023-09-07T01:25:30;18.60;1.00
42841;DHT22;28491;46.898;7.660;2023-09-07T01:27:57;18.60;1.00
42841;DHT22;28491;46.898;7.660;2023-09-07T01:30:24;18.60;1.00
42841;DHT22;28491;46.898;7.660;2023-09-07T01:32:50;18.60;1.00
42841;DHT22;28491;46.898;7.660;2023-09-07T01:35:16;18.70;1.00
42841;DHT22;28491;46.898;7.660;2023-09-07T01:37:43;18.60;1.00
42841;DHT22;28491;46.898;7.660;2023-09-07T01:40:09;18.50;1.00
42841;DHT22;28491;46.898;7.660;2023-09-07T01:42:35;18.50;1.00
42841;DHT22;28491;46.898;7.660;2023-09-07T01:45:00;18.50;1.00
42841;DHT22;28491;46.898;7.660;2023-09-07T01:47:26;18.50;1.00
42841;DHT22;28491;46.898;7.660;2023-09-07T01:49:51;18.30;1.00
42841;DHT22;28491;46.898;7.660;2023-09-07T01:52:17;18.10;10.30
42841;DHT22;28491;46.898;7.660;2023-09-07T01:54:42;18.20;22.70
42841;DHT22;28491;46.898;7.660;2023-09-07T01:57:08;18.30;19.20
42841;DHT22;28491;46.898;7.660;2023-09-07T01:59:33;18.30;6.50
42841;DHT22;28491;46.898;7.660;2023-09-07T02:01:59;18.30;14.20
42841;DHT22;28491;46.898;7.660;2023-09-07T02:04:24;18.30;18.20
42841;DHT22;28491;46.898;7.660;2023-09-07T02:06:50;18.30;12.40
42841;DHT22;28491;46.898;7.660;2023-09-07T02:09:15;18.30;14.90
42841;DHT22;28491;46.898;7.660;2023-09-07T02:11:41;18.30;4.60
42841;DHT22;28491;46.898;7.660;2023-09-07T02:14:06;18.50;6.90
42841;DHT22;28491;46.898;7.660;2023-09-07T02:16:32;18.50;1.00
42841;DHT22;28491;46.898;7.660;2023-09-07T02:19:02;18.60;1.00
42841;DHT22;28491;46.898;7.660;2023-09-07T02:21:32;18.50;1.00
42841;DHT22;28491;46.898;7.660;2023-09-07T02:23:58;18.50;1.00
42841;DHT22;28491;46.898;7.660;2023-09-07T02:26:23;18.30;1.00
42841;DHT22;28491;46.898;7.660;2023-09-07T02:28:49;18.40;1.00
42841;DHT22;28491;46.898;7.660;2023-09-07T02:31:14;18.40;1.00
42841;DHT22;28491;46.898;7.660;2023-09-07T02:33:40;18.20;1.00
42841;DHT22;28491;46.898;7.660;2023-09-07T02:36:05;18.30;1.00
42841;DHT22;28491;46.898;7.660;2023-09-07T02:38:31;18.30;1.00
42841;DHT22;28491;46.898;7.660;2023-09-07T02:40:57;18.30;1.00
42841;DHT22;28491;46.898;7.660;2023-09-07T02:43:22;18.20;1.00
42841;DHT22;28491;46.898;7.660;2023-09-07T02:45:51;18.20;1.00
42841;DHT22;28491;46.898;7.660;2023-09-07T02:48:16;18.20;1.00
42841;DHT22;28491;46.898;7.660;2023-09-07T02:50:42;18.10;1.00
42841;DHT22;28491;46.898;7.660;2023-09-07T02:53:08;18.00;1.00
42841;DHT22;28491;46.898;7.660;2023-09-07T02:55:33;17.80;8.10
42841;DHT22;28491;46.898;7.660;2023-09-07T02:58:02;17.80;16.30
42841;DHT22;28491;46.898;7.660;2023-09-07T03:00:28;17.90;18.40
42841;DHT22;28491;46.898;7.660;2023-09-07T03:02:53;17.90;12.80
42841;DHT22;28491;46.898;7.660;2023-09-07T03:05:19;18.00;14.30
42841;DHT22;28491;46.898;7.660;2023-09-07T03:07:46;17.80;17.70
42841;DHT22;28491;46.898;7.660;2023-09-07T03:10:12;17.70;25.40
42841;DHT22;28491;46.898;7.660;2023-09-07T03:12:38;17.80;36.20
42841;DHT22;28491;46.898;7.660;2023-09-07T03:15:04;17.90;25.90
42841;DHT22;28491;46.898;7.660;2023-09-07T03:17:30;17.90;19.20
42841;DHT22;28491;46.898;7.660;2023-09-07T03:19:56;17.80;28.50
42841;DHT22;28491;46.898;7.660;2023-09-07T03:22:22;17.90;23.20
42841;DHT22;28491;46.898;7.660;2023-09-07T03:24:50;17.80;24.40
42841;DHT22;28491;46.898;7.660;2023-09-07T03:27:16;17.90;27.80
42841;DHT22;28491;46.898;7.660;2023-09-07T03:29:41;17.80;24.00
42841;DHT22;28491;46.898;7.660;2023-09-07T03:32:07;18.00;22.30
42841;DHT22;28491;46.898;7.660;2023-09-07T03:34:34;18.00;11.10
42841;DHT22;28491;46.898;7.660;2023-09-07T03:36:59;18.10;7.10
42841;DHT22;28491;46.898;7.660;2023-09-07T03:39:25;18.10;1.00
42841;DHT22;28491;46.898;7.660;2023-09-07T03:41:51;18.10;1.00
42841;DHT22;28491;46.898;7.660;2023-09-07T03:44:17;18.10;1.00
42841;DHT22;28491;46.898;7.660;2023-09-07T03:46:43;18.10;1.00
42841;DHT22;28491;46.898;7.660;2023-09-07T03:49:08;18.00;1.00
42841;DHT22;28491;46.898;7.660;2023-09-07T03:51:34;17.90;1.00
42841;DHT22;28491;46.898;7.660;2023-09-07T03:53:59;17.80;1.00
42841;DHT22;28491;46.898;7.660;2023-09-07T03:56:25;17.80;1.00
42841;DHT22;28491;46.898;7.660;2023-09-07T03:58:51;17.70;1.00
42841;DHT22;28491;46.898;7.660;2023-09-07T04:01:16;17.80;1.00
42841;DHT22;28491;46.898;7.660;2023-09-07T04:03:42;17.80;1.00
42841;DHT22;28491;46.898;7.660;2023-09-07T04:06:08;17.90;1.00
42841;DHT22;28491;46.898;7.660;2023-09-07T04:08:33;17.90;1.00
42841;DHT22;28491;46.898;7.660;2023-09-07T04:11:03;17.90;1.00
42841;DHT22;28491;46.898;7.660;2023-09-07T04:13:29;17.90;1.00
42841;DHT22;28491;46.898;7.660;2023-09-07T04:15:54;18.00;1.00
42841;DHT22;28491;46.898;7.660;2023-09-07T04:18:20;17.90;1.00
42841;DHT22;28491;46.898;7.660;2023-09-07T04:20:45;17.70;1.00
42841;DHT22;28491;46.898;7.660;2023-09-07T04:23:11;17.70;1.00
42841;DHT22;28491;46.898;7.660;2023-09-07T04:25:36;17.80;1.00
42841;DHT22;28491;46.898;7.660;2023-09-07T04:28:05;17.80;1.00
42841;DHT22;28491;46.898;7.660;2023-09-07T04:30:30;17.90;1.00
42841;DHT22;28491;46.898;7.660;2023-09-07T04:32:56;17.80;1.00
42841;DHT22;28491;46.898;7.660;2023-09-07T04:35:28;17.90;1.00
42841;DHT22;28491;46.898;7.660;2023-09-07T04:37:54;17.90;1.00
42841;DHT22;28491;46.898;7.660;2023-09-07T04:40:20;17.90;1.00
42841;DHT22;28491;46.898;7.660;2023-09-07T04:42:45;17.80;1.00
42841;DHT22;28491;46.898;7.660;2023-09-07T04:45:11;17.80;1.00
42841;DHT22;28491;46.898;7.660;2023-09-07T04:47:36;17.70;1.00
42841;DHT22;28491;46.898;7.660;2023-09-07T04:50:02;17.70;1.00
42841;DHT22;28491;46.898;7.660;2023-09-07T04:52:29;17.70;1.00
42841;DHT22;28491;46.898;7.660;2023-09-07T04:54:55;17.60;1.00
42841;DHT22;28491;46.898;7.660;2023-09-07T04:57:20;17.50;1.00
42841;DHT22;28491;46.898;7.660;2023-09-07T04:59:46;17.50;1.00
42841;DHT22;28491;46.898;7.660;2023-09-07T05:02:11;17.60;15.30
42841;DHT22;28491;46.898;7.660;2023-09-07T05:04:37;17.60;3.50
42841;DHT22;28491;46.898;7.660;2023-09-07T05:07:03;17.50;1.00
42841;DHT22;28491;46.898;7.660;2023-09-07T05:09:29;17.60;14.10
42841;DHT22;28491;46.898;7.660;2023-09-07T05:11:55;17.60;27.80
42841;DHT22;28491;46.898;7.660;2023-09-07T05:14:21;17.70;16.60
42841;DHT22;28491;46.898;7.660;2023-09-07T05:16:47;17.50;1.00
42841;DHT22;28491;46.898;7.660;2023-09-07T05:19:13;17.50;9.60
42841;DHT22;28491;46.898;7.660;2023-09-07T05:21:39;17.40;21.40
42841;DHT22;28491;46.898;7.660;2023-09-07T05:24:04;17.50;19.80
42841;DHT22;28491;46.898;7.660;2023-09-07T05:26:30;17.50;30.60
42841;DHT22;28491;46.898;7.660;2023-09-07T05:28:56;17.50;59.40
42841;DHT22;28491;46.898;7.660;2023-09-07T05:31:21;17.50;59.00
42841;DHT22;28491;46.898;7.660;2023-09-07T05:33:47;17.50;52.00
42841;DHT22;28491;46.898;7.660;2023-09-07T05:36:12;17.40;43.60
42841;DHT22;28491;46.898;7.660;2023-09-07T05:38:38;17.50;61.60
42841;DHT22;28491;46.898;7.660;2023-09-07T05:41:04;17.50;62.30
42841;DHT22;28491;46.898;7.660;2023-09-07T05:43:29;17.50;63.50
42841;DHT22;28491;46.898;7.660;2023-09-07T05:45:55;17.50;63.70
42841;DHT22;28491;46.898;7.660;2023-09-07T05:48:20;17.40;64.80
42841;DHT22;28491;46.898;7.660;2023-09-07T05:50:46;17.50;65.30
42841;DHT22;28491;46.898;7.660;2023-09-07T05:53:11;17.50;67.30
42841;DHT22;28491;46.898;7.660;2023-09-07T05:55:37;17.50;68.10
42841;DHT22;28491;46.898;7.660;2023-09-07T05:58:07;17.40;67.40
42841;DHT22;28491;46.898;7.660;2023-09-07T06:00:35;17.60;71.20
42841;DHT22;28491;46.898;7.660;2023-09-07T06:03:01;17.70;70.80
42841;DHT22;28491;46.898;7.660;2023-09-07T06:05:27;17.70;70.10
42841;DHT22;28491;46.898;7.660;2023-09-07T06:07:53;17.70;70.20
42841;DHT22;28491;46.898;7.660;2023-09-07T06:10:18;17.70;69.80
42841;DHT22;28491;46.898;7.660;2023-09-07T06:12:44;17.70;69.80
42841;DHT22;28491;46.898;7.660;2023-09-07T06:15:10;17.80;70.10
42841;DHT22;28491;46.898;7.660;2023-09-07T06:17:36;17.80;69.50
42841;DHT22;28491;46.898;7.660;2023-09-07T06:20:02;17.80;72.50
42841;DHT22;28491;46.898;7.660;2023-09-07T06:22:28;17.80;73.30
42841;DHT22;28491;46.898;7.660;2023-09-07T06:24:53;17.80;73.30
42841;DHT22;28491;46.898;7.660;2023-09-07T06:27:19;17.80;75.10
42841;DHT22;28491;46.898;7.660;2023-09-07T06:29:45;17.70;74.80
42841;DHT22;28491;46.898;7.660;2023-09-07T06:32:10;17.80;75.30
42841;DHT22;28491;46.898;7.660;2023-09-07T06:34:36;17.80;75.20
42841;DHT22;28491;46.898;7.660;2023-09-07T06:37:01;17.80;75.50
42841;DHT22;28491;46.898;7.660;2023-09-07T06:39:27;17.80;75.80
42841;DHT22;28491;46.898;7.660;2023-09-07T06:41:52;17.80;76.50
42841;DHT22;28491;46.898;7.660;2023-09-07T06:44:18;17.90;77.40
42841;DHT22;28491;46.898;7.660;2023-09-07T06:46:44;18.00;76.90
42841;DHT22;28491;46.898;7.660;2023-09-07T06:49:09;18.00;77.60
42841;DHT22;28491;46.898;7.660;2023-09-07T06:51:35;18.00;78.20
42841;DHT22;28491;46.898;7.660;2023-09-07T06:54:00;18.00;78.80
42841;DHT22;28491;46.898;7.660;2023-09-07T06:56:26;18.00;81.40
42841;DHT22;28491;46.898;7.660;2023-09-07T06:58:56;18.10;82.30
42841;DHT22;28491;46.898;7.660;2023-09-07T07:01:22;18.10;81.10
42841;DHT22;28491;46.898;7.660;2023-09-07T07:03:47;18.20;80.10
42841;DHT22;28491;46.898;7.660;2023-09-07T07:06:13;18.20;79.40
42841;DHT22;28491;46.898;7.660;2023-09-07T07:08:38;18.30;78.80
42841;DHT22;28491;46.898;7.660;2023-09-07T07:11:04;18.40;78.20
42841;DHT22;28491;46.898;7.660;2023-09-07T07:13:29;18.40;80.20
42841;DHT22;28491;46.898;7.660;2023-09-07T07:15:55;18.50;80.90
42841;DHT22;28491;46.898;7.660;2023-09-07T07:18:20;18.50;81.40
42841;DHT22;28491;46.898;7.660;2023-09-07T07:20:46;18.60;80.80
42841;DHT22;28491;46.898;7.660;2023-09-07T07:23:12;18.60;81.20
42841;DHT22;28491;46.898;7.660;2023-09-07T07:25:40;18.60;80.90
42841;DHT22;28491;46.898;7.660;2023-09-07T07:28:06;18.70;79.50
42841;DHT22;28491;46.898;7.660;2023-09-07T07:30:33;18.80;79.80
42841;DHT22;28491;46.898;7.660;2023-09-07T07:32:59;18.70;82.20
42841;DHT22;28491;46.898;7.660;2023-09-07T07:35:24;18.80;82.10
42841;DHT22;28491;46.898;7.660;2023-09-07T07:37:51;18.80;82.80
42841;DHT22;28491;46.898;7.660;2023-09-07T07:40:16;18.90;82.10
42841;DHT22;28491;46.898;7.660;2023-09-07T07:42:43;18.90;82.80
42841;DHT22;28491;46.898;7.660;2023-09-07T07:45:09;18.90;82.70
42841;DHT22;28491;46.898;7.660;2023-09-07T07:47:35;19.00;83.80
42841;DHT22;28491;46.898;7.660;2023-09-07T07:50:00;19.10;86.10
42841;DHT22;28491;46.898;7.660;2023-09-07T07:52:26;19.10;86.30
42841;DHT22;28491;46.898;7.660;2023-09-07T07:54:52;19.10;85.10
42841;DHT22;28491;46.898;7.660;2023-09-07T07:57:18;19.20;84.60
42841;DHT22;28491;46.898;7.660;2023-09-07T07:59:43;19.20;83.00
42841;DHT22;28491;46.898;7.660;2023-09-07T08:02:09;19.30;82.10
42841;DHT22;28491;46.898;7.660;2023-09-07T08:04:34;19.40;84.20
42841;DHT22;28491;46.898;7.660;2023-09-07T08:07:01;19.40;83.10
42841;DHT22;28491;46.898;7.660;2023-09-07T08:09:30;19.40;81.10
42841;DHT22;28491;46.898;7.660;2023-09-07T08:11:56;19.50;80.40
42841;DHT22;28491;46.898;7.660;2023-09-07T08:14:25;19.50;81.60
42841;DHT22;28491;46.898;7.660;2023-09-07T08:16:52;19.60;81.70
42841;DHT22;28491;46.898;7.660;2023-09-07T08:19:18;19.60;83.30
42841;DHT22;28491;46.898;7.660;2023-09-07T08:21:43;19.70;82.30
42841;DHT22;28491;46.898;7.660;2023-09-07T08:24:10;19.80;81.50
42841;DHT22;28491;46.898;7.660;2023-09-07T08:26:36;19.80;81.50
42841;DHT22;28491;46.898;7.660;2023-09-07T08:29:03;19.80;80.80
42841;DHT22;28491;46.898;7.660;2023-09-07T08:31:40;19.90;80.40
42841;DHT22;28491;46.898;7.660;2023-09-07T08:34:06;20.00;80.60
42841;DHT22;28491;46.898;7.660;2023-09-07T08:36:34;20.00;79.40
42841;DHT22;28491;46.898;7.660;2023-09-07T08:39:01;20.10;81.00
42841;DHT22;28491;46.898;7.660;2023-09-07T08:41:31;20.10;80.40
42841;DHT22;28491;46.898;7.660;2023-09-07T08:43:59;20.20;79.70
42841;DHT22;28491;46.898;7.660;2023-09-07T08:46:26;20.20;78.00
42841;DHT22;28491;46.898;7.660;2023-09-07T08:48:52;20.20;79.10
42841;DHT22;28491;46.898;7.660;2023-09-07T08:51:20;20.20;80.20
42841;DHT22;28491;46.898;7.660;2023-09-07T08:53:47;20.20;76.30
42841;DHT22;28491;46.898;7.660;2023-09-07T08:56:14;20.20;76.50
42841;DHT22;28491;46.898;7.660;2023-09-07T08:58:41;20.30;78.90
42841;DHT22;28491;46.898;7.660;2023-09-07T09:01:07;20.30;78.20
42841;DHT22;28491;46.898;7.660;2023-09-07T09:03:34;20.30;74.80
42841;DHT22;28491;46.898;7.660;2023-09-07T09:06:00;20.40;75.00
42841;DHT22;28491;46.898;7.660;2023-09-07T09:08:26;20.40;70.90
42841;DHT22;28491;46.898;7.660;2023-09-07T09:11:03;20.40;71.80
42841;DHT22;28491;46.898;7.660;2023-09-07T09:13:30;20.50;72.40
42841;DHT22;28491;46.898;7.660;2023-09-07T09:15:59;20.50;73.70
42841;DHT22;28491;46.898;7.660;2023-09-07T09:18:24;20.60;71.10
42841;DHT22;28491;46.898;7.660;2023-09-07T09:20:52;20.60;70.50
42841;DHT22;28491;46.898;7.660;2023-09-07T09:23:18;20.70;71.20
42841;DHT22;28491;46.898;7.660;2023-09-07T09:25:43;20.70;63.90
42841;DHT22;28491;46.898;7.660;2023-09-07T09:28:09;20.70;60.80
42841;DHT22;28491;46.898;7.660;2023-09-07T09:30:36;20.60;63.00
42841;DHT22;28491;46.898;7.660;2023-09-07T09:33:01;20.60;63.60
42841;DHT22;28491;46.898;7.660;2023-09-07T09:35:28;20.70;60.00
42841;DHT22;28491;46.898;7.660;2023-09-07T09:37:55;20.70;52.90
42841;DHT22;28491;46.898;7.660;2023-09-07T09:40:20;20.80;50.80
42841;DHT22;28491;46.898;7.660;2023-09-07T09:42:46;20.80;38.60
42841;DHT22;28491;46.898;7.660;2023-09-07T09:45:13;20.90;18.80
42841;DHT22;28491;46.898;7.660;2023-09-07T09:47:40;20.80;19.90
42841;DHT22;28491;46.898;7.660;2023-09-07T09:50:08;20.90;26.90
42841;DHT22;28491;46.898;7.660;2023-09-07T09:52:35;20.90;18.80
42841;DHT22;28491;46.898;7.660;2023-09-07T09:55:04;21.00;1.00
42841;DHT22;28491;46.898;7.660;2023-09-07T09:57:32;21.10;16.20
42841;DHT22;28491;46.898;7.660;2023-09-07T09:59:58;21.20;3.60
42841;DHT22;28491;46.898;7.660;2023-09-07T10:02:25;21.20;1.00
42841;DHT22;28491;46.898;7.660;2023-09-07T10:04:52;21.20;1.00
42841;DHT22;28491;46.898;7.660;2023-09-07T10:07:19;21.30;1.00
42841;DHT22;28491;46.898;7.660;2023-09-07T10:09:44;21.40;1.00
42841;DHT22;28491;46.898;7.660;2023-09-07T10:12:13;21.30;1.00
42841;DHT22;28491;46.898;7.660;2023-09-07T10:14:40;21.50;1.00
42841;DHT22;28491;46.898;7.660;2023-09-07T10:17:06;21.50;1.00
42841;DHT22;28491;46.898;7.660;2023-09-07T10:19:32;21.50;1.00
42841;DHT22;28491;46.898;7.660;2023-09-07T10:21:59;21.60;1.00
42841;DHT22;28491;46.898;7.660;2023-09-07T10:24:34;21.80;1.00
42841;DHT22;28491;46.898;7.660;2023-09-07T10:27:03;21.70;1.00
42841;DHT22;28491;46.898;7.660;2023-09-07T10:29:43;21.70;1.00
42841;DHT22;28491;46.898;7.660;2023-09-07T10:32:09;21.70;1.00
42841;DHT22;28491;46.898;7.660;2023-09-07T10:34:39;21.80;1.00
42841;DHT22;28491;46.898;7.660;2023-09-07T10:37:05;21.80;1.00
42841;DHT22;28491;46.898;7.660;2023-09-07T10:39:33;21.90;1.00
42841;DHT22;28491;46.898;7.660;2023-09-07T10:41:58;21.90;1.00
42841;DHT22;28491;46.898;7.660;2023-09-07T10:44:29;21.90;1.00
42841;DHT22;28491;46.898;7.660;2023-09-07T10:46:56;22.00;1.00
42841;DHT22;28491;46.898;7.660;2023-09-07T10:49:23;22.00;1.00
42841;DHT22;28491;46.898;7.660;2023-09-07T10:51:48;22.10;1.00
42841;DHT22;28491;46.898;7.660;2023-09-07T10:56:42;22.20;1.00
42841;DHT22;28491;46.898;7.660;2023-09-07T10:59:08;22.20;1.00
42841;DHT22;28491;46.898;7.660;2023-09-07T11:01:33;22.40;1.00
42841;DHT22;28491;46.898;7.660;2023-09-07T11:03:59;22.30;1.00
42841;DHT22;28491;46.898;7.660;2023-09-07T11:06:24;22.40;1.00
42841;DHT22;28491;46.898;7.660;2023-09-07T11:08:50;22.30;1.00
42841;DHT22;28491;46.898;7.660;2023-09-07T11:11:16;22.40;1.00
42841;DHT22;28491;46.898;7.660;2023-09-07T11:13:42;22.40;1.00
42841;DHT22;28491;46.898;7.660;2023-09-07T11:16:09;22.40;1.00
42841;DHT22;28491;46.898;7.660;2023-09-07T11:18:35;22.40;1.00
42841;DHT22;28491;46.898;7.660;2023-09-07T11:21:02;22.40;1.00
42841;DHT22;28491;46.898;7.660;2023-09-07T11:23:32;22.50;1.00
42841;DHT22;28491;46.898;7.660;2023-09-07T11:26:04;22.50;1.00
42841;DHT22;28491;46.898;7.660;2023-09-07T11:28:33;22.60;1.00
42841;DHT22;28491;46.898;7.660;2023-09-07T11:30:59;22.70;1.00
42841;DHT22;28491;46.898;7.660;2023-09-07T11:33:26;22.60;1.00
42841;DHT22;28491;46.898;7.660;2023-09-07T11:35:52;22.70;1.00
42841;DHT22;28491;46.898;7.660;2023-09-07T11:38:21;22.70;1.00
42841;DHT22;28491;46.898;7.660;2023-09-07T11:40:47;22.70;1.00
42841;DHT22;28491;46.898;7.660;2023-09-07T11:43:17;22.70;1.00
42841;DHT22;28491;46.898;7.660;2023-09-07T11:45:46;22.80;1.00
42841;DHT22;28491;46.898;7.660;2023-09-07T11:48:11;22.90;1.00
42841;DHT22;28491;46.898;7.660;2023-09-07T11:50:38;23.00;1.00
42841;DHT22;28491;46.898;7.660;2023-09-07T11:53:07;23.00;99.90
42841;DHT22;28491;46.898;7.660;2023-09-07T11:55:33;23.10;1.00
42841;DHT22;28491;46.898;7.660;2023-09-07T11:57:59;23.10;99.90
42841;DHT22;28491;46.898;7.660;2023-09-07T12:00:25;23.20;99.90
42841;DHT22;28491;46.898;7.660;2023-09-07T12:02:51;23.20;99.90
42841;DHT22;28491;46.898;7.660;2023-09-07T12:05:16;23.20;99.90
42841;DHT22;28491;46.898;7.660;2023-09-07T12:07:43;23.20;99.10
42841;DHT22;28491;46.898;7.660;2023-09-07T12:10:09;23.20;99.90
42841;DHT22;28491;46.898;7.660;2023-09-07T12:12:36;23.30;99.90
42841;DHT22;28491;46.898;7.660;2023-09-07T12:15:03;23.40;99.90
42841;DHT22;28491;46.898;7.660;2023-09-07T12:17:29;23.40;99.10
42841;DHT22;28491;46.898;7.660;2023-09-07T12:19:55;23.40;96.70
42841;DHT22;28491;46.898;7.660;2023-09-07T12:22:20;23.40;99.90
42841;DHT22;28491;46.898;7.660;2023-09-07T12:24:46;23.40;99.90
42841;DHT22;28491;46.898;7.660;2023-09-07T12:27:11;23.30;99.90
42841;DHT22;28491;46.898;7.660;2023-09-07T12:29:37;23.40;99.90
42841;DHT22;28491;46.898;7.660;2023-09-07T12:32:03;23.40;1.00
42841;DHT22;28491;46.898;7.660;2023-09-07T12:34:28;23.40;99.90
42841;DHT22;28491;46.898;7.660;2023-09-07T12:36:54;23.50;98.20
42841;DHT22;28491;46.898;7.660;2023-09-07T12:39:19;23.70;97.10
42841;DHT22;28491;46.898;7.660;2023-09-07T12:41:45;23.70;95.60
42841;DHT22;28491;46.898;7.660;2023-09-07T12:44:10;23.70;91.00
42841;DHT22;28491;46.898;7.660;2023-09-07T12:46:36;23.70;96.70
42841;DHT22;28491;46.898;7.660;2023-09-07T12:49:02;23.70;98.80
42841;DHT22;28491;46.898;7.660;2023-09-07T12:51:28;23.80;99.90
42841;DHT22;28491;46.898;7.660;2023-09-07T12:53:53;23.80;98.30
42841;DHT22;28491;46.898;7.660;2023-09-07T12:56:19;23.80;99.90
42841;DHT22;28491;46.898;7.660;2023-09-07T12:58:45;23.90;91.30
42841;DHT22;28491;46.898;7.660;2023-09-07T13:01:11;23.90;78.60
42841;DHT22;28491;46.898;7.660;2023-09-07T13:03:40;23.90;92.60
42841;DHT22;28491;46.898;7.660;2023-09-07T13:06:06;24.00;94.90
42841;DHT22;28491;46.898;7.660;2023-09-07T13:08:31;24.20;84.60
42841;DHT22;28491;46.898;7.660;2023-09-07T13:10:57;24.10;88.10
42841;DHT22;28491;46.898;7.660;2023-09-07T13:13:23;24.20;92.30
42841;DHT22;28491;46.898;7.660;2023-09-07T13:15:51;24.20;74.80
42841;DHT22;28491;46.898;7.660;2023-09-07T13:18:17;24.40;72.00
42841;DHT22;28491;46.898;7.660;2023-09-07T13:20:42;24.30;62.60
42841;DHT22;28491;46.898;7.660;2023-09-07T13:23:08;24.30;76.30
42841;DHT22;28491;46.898;7.660;2023-09-07T13:25:33;24.20;83.80
42841;DHT22;28491;46.898;7.660;2023-09-07T13:27:59;24.20;84.50
42841;DHT22;28491;46.898;7.660;2023-09-07T13:30:25;24.20;76.80
42841;DHT22;28491;46.898;7.660;2023-09-07T13:32:50;24.30;75.40
42841;DHT22;28491;46.898;7.660;2023-09-07T13:35:16;24.30;89.20
42841;DHT22;28491;46.898;7.660;2023-09-07T13:37:42;24.50;45.30
42841;DHT22;28491;46.898;7.660;2023-09-07T13:40:08;24.50;78.70
42841;DHT22;28491;46.898;7.660;2023-09-07T13:42:34;24.60;89.60
42841;DHT22;28491;46.898;7.660;2023-09-07T13:44:59;24.60;87.60
42841;DHT22;28491;46.898;7.660;2023-09-07T13:47:25;24.70;85.70
42841;DHT22;28491;46.898;7.660;2023-09-07T13:49:50;24.50;72.50
42841;DHT22;28491;46.898;7.660;2023-09-07T13:52:16;24.40;68.00
42841;DHT22;28491;46.898;7.660;2023-09-07T13:54:42;24.20;9.90
42841;DHT22;28491;46.898;7.660;2023-09-07T13:57:08;24.20;71.70
42841;DHT22;28491;46.898;7.660;2023-09-07T13:59:34;24.20;1.00
42841;DHT22;28491;46.898;7.660;2023-09-07T14:02:00;24.20;1.00
42841;DHT22;28491;46.898;7.660;2023-09-07T14:04:26;24.20;65.10
42841;DHT22;28491;46.898;7.660;2023-09-07T14:06:52;24.10;71.40
42841;DHT22;28491;46.898;7.660;2023-09-07T14:09:17;24.00;82.70
42841;DHT22;28491;46.898;7.660;2023-09-07T14:11:44;24.00;90.30
42841;DHT22;28491;46.898;7.660;2023-09-07T14:14:10;24.10;90.60
42841;DHT22;28491;46.898;7.660;2023-09-07T14:16:35;24.10;91.00
42841;DHT22;28491;46.898;7.660;2023-09-07T14:19:02;24.10;90.50
42841;DHT22;28491;46.898;7.660;2023-09-07T14:21:28;24.10;85.80
42841;DHT22;28491;46.898;7.660;2023-09-07T14:23:53;24.00;90.30
42841;DHT22;28491;46.898;7.660;2023-09-07T14:26:19;24.10;75.20
42841;DHT22;28491;46.898;7.660;2023-09-07T14:28:44;24.20;85.70
42841;DHT22;28491;46.898;7.660;2023-09-07T14:31:10;24.30;83.10
42841;DHT22;28491;46.898;7.660;2023-09-07T14:33:37;24.40;80.60
42841;DHT22;28491;46.898;7.660;2023-09-07T14:36:05;24.40;64.40
42841;DHT22;28491;46.898;7.660;2023-09-07T14:38:30;24.50;60.20
42841;DHT22;28491;46.898;7.660;2023-09-07T14:41:00;24.50;11.10
42841;DHT22;28491;46.898;7.660;2023-09-07T14:43:25;24.50;65.20
42841;DHT22;28491;46.898;7.660;2023-09-07T14:45:51;24.50;24.40
42841;DHT22;28491;46.898;7.660;2023-09-07T14:48:16;24.50;1.00
42841;DHT22;28491;46.898;7.660;2023-09-07T14:50:42;24.50;1.00
42841;DHT22;28491;46.898;7.660;2023-09-07T14:53:08;24.50;1.00
42841;DHT22;28491;46.898;7.660;2023-09-07T14:55:33;24.70;1.00
42841;DHT22;28491;46.898;7.660;2023-09-07T14:57:59;24.60;1.00
42841;DHT22;28491;46.898;7.660;2023-09-07T15:00:24;24.50;1.00
42841;DHT22;28491;46.898;7.660;2023-09-07T15:02:52;24.40;82.40
42841;DHT22;28491;46.898;7.660;2023-09-07T15:05:18;24.30;74.40
42841;DHT22;28491;46.898;7.660;2023-09-07T15:07:44;24.30;80.00
42841;DHT22;28491;46.898;7.660;2023-09-07T15:12:44;24.20;99.20
42841;DHT22;28491;46.898;7.660;2023-09-07T15:23:17;24.10;1.00
42841;DHT22;28491;46.898;7.660;2023-09-07T15:25:52;24.10;99.90
42841;DHT22;28491;46.898;7.660;2023-09-07T15:28:18;24.10;1.00
42841;DHT22;28491;46.898;7.660;2023-09-07T15:30:47;24.10;1.00
42841;DHT22;28491;46.898;7.660;2023-09-07T15:33:12;24.20;1.00
42841;DHT22;28491;46.898;7.660;2023-09-07T15:43:24;24.10;1.00
42841;DHT22;28491;46.898;7.660;2023-09-07T15:45:49;24.20;1.00
42841;DHT22;28491;46.898;7.660;2023-09-07T16:02:07;24.20;97.60
42841;DHT22;28491;46.898;7.660;2023-09-07T16:04:44;24.20;92.60